sensor_id;sensor_type;location;lat;lon;timestamp;temperature;humidity
3466;DHT22;1747;48.884;9.160;2023-08-20T00:01:27;23.10;99.90
3466;DHT22;1747;48.884;9.160;2023-08-20T00:03:54;23.10;99.90
3466;DHT22;1747;48.884;9.160;2023-08-20T00:06:22;23.10;99.90
3466;DHT22;1747;48.884;9.160;2023-08-20T00:08:49;23.00;99.90
3466;DHT22;1747;48.884;9.160;2023-08-20T00:11:16;23.00;99.90
3466;DHT22;1747;48.884;9.160;2023-08-20T00:13:45;23.00;99.90
3466;DHT22;1747;48.884;9.160;2023-08-20T00:16:12;23.00;99.90
3466;DHT22;1747;48.884;9.160;2023-08-20T00:18:39;23.00;99.90
3466;DHT22;1747;48.884;9.160;2023-08-20T00:21:07;22.90;99.90
3466;DHT22;1747;48.884;9.160;2023-08-20T00:23:34;22.90;99.90
3466;DHT22;1747;48.884;9.160;2023-08-20T00:26:02;22.90;99.90
3466;DHT22;1747;48.884;9.160;2023-08-20T00:28:29;22.90;99.90
3466;DHT22;1747;48.884;9.160;2023-08-20T00:30:57;22.90;99.90
3466;DHT22;1747;48.884;9.160;2023-08-20T00:33:24;22.80;99.90
3466;DHT22;1747;48.884;9.160;2023-08-20T00:35:51;22.70;99.90
3466;DHT22;1747;48.884;9.160;2023-08-20T00:38:17;22.80;99.90
3466;DHT22;1747;48.884;9.160;2023-08-20T00:40:44;22.70;99.90
3466;DHT22;1747;48.884;9.160;2023-08-20T00:43:11;22.70;99.90
3466;DHT22;1747;48.884;9.160;2023-08-20T00:45:38;22.70;99.90
3466;DHT22;1747;48.884;9.160;2023-08-20T00:48:08;22.60;99.90
3466;DHT22;1747;48.884;9.160;2023-08-20T00:50:35;22.60;99.90
3466;DHT22;1747;48.884;9.160;2023-08-20T00:53:02;22.70;99.90
3466;DHT22;1747;48.884;9.160;2023-08-20T00:55:29;22.70;99.90
3466;DHT22;1747;48.884;9.160;2023-08-20T00:57:56;22.70;99.90
3466;DHT22;1747;48.884;9.160;2023-08-20T01:00:23;22.70;99.90
3466;DHT22;1747;48.884;9.160;2023-08-20T01:02:50;22.70;99.90
3466;DHT22;1747;48.884;9.160;2023-08-20T01:05:19;22.70;99.90
3466;DHT22;1747;48.884;9.160;2023-08-20T01:07:57;22.70;99.90
3466;DHT22;1747;48.884;9.160;2023-08-20T01:10:34;22.70;99.90
3466;DHT22;1747;48.884;9.160;2023-08-20T01:13:06;22.60;99.90
3466;DHT22;1747;48.884;9.160;2023-08-20T01:15:33;22.60;99.90
3466;DHT22;1747;48.884;9.160;2023-08-20T01:18:00;22.60;99.90
3466;DHT22;1747;48.884;9.160;2023-08-20T01:20:31;22.60;99.90
3466;DHT22;1747;48.884;9.160;2023-08-20T01:26:13;22.50;99.90
3466;DHT22;1747;48.884;9.160;2023-08-20T01:28:45;22.60;99.90
3466;DHT22;1747;48.884;9.160;2023-08-20T01:31:12;22.50;99.90
3466;DHT22;1747;48.884;9.160;2023-08-20T01:33:40;22.50;99.90
3466;DHT22;1747;48.884;9.160;2023-08-20T01:36:07;22.50;99.90
3466;DHT22;1747;48.884;9.160;2023-08-20T01:38:35;22.50;99.90
3466;DHT22;1747;48.884;9.160;2023-08-20T01:41:03;22.30;99.90
3466;DHT22;1747;48.884;9.160;2023-08-20T01:43:29;22.20;99.90
3466;DHT22;1747;48.884;9.160;2023-08-20T01:45:58;22.10;99.90
3466;DHT22;1747;48.884;9.160;2023-08-20T01:48:24;22.20;99.90
3466;DHT22;1747;48.884;9.160;2023-08-20T01:50:51;22.20;99.90
3466;DHT22;1747;48.884;9.160;2023-08-20T01:53:18;22.20;99.90
3466;DHT22;1747;48.884;9.160;2023-08-20T01:55:45;22.10;99.90
3466;DHT22;1747;48.884;9.160;2023-08-20T01:58:12;22.10;99.90
3466;DHT22;1747;48.884;9.160;2023-08-20T02:00:39;22.10;99.90
3466;DHT22;1747;48.884;9.160;2023-08-20T02:03:07;22.10;99.90
3466;DHT22;1747;48.884;9.160;2023-08-20T02:05:34;22.10;99.90
3466;DHT22;1747;48.884;9.160;2023-08-20T02:08:01;22.00;99.90
3466;DHT22;1747;48.884;9.160;2023-08-20T02:10:27;21.90;99.90
3466;DHT22;1747;48.884;9.160;2023-08-20T02:12:54;21.80;99.90
3466;DHT22;1747;48.884;9.160;2023-08-20T02:15:21;21.90;99.90
3466;DHT22;1747;48.884;9.160;2023-08-20T02:17:48;21.90;99.90
3466;DHT22;1747;48.884;9.160;2023-08-20T02:20:16;21.80;99.90
3466;DHT22;1747;48.884;9.160;2023-08-20T02:22:43;21.80;99.90
3466;DHT22;1747;48.884;9.160;2023-08-20T02:25:10;21.90;99.90
3466;DHT22;1747;48.884;9.160;2023-08-20T02:27:36;21.90;99.90
3466;DHT22;1747;48.884;9.160;2023-08-20T02:30:04;21.90;99.90
3466;DHT22;1747;48.884;9.160;2023-08-20T02:32:31;21.90;99.90
3466;DHT22;1747;48.884;9.160;2023-08-20T02:34:59;21.90;99.90
3466;DHT22;1747;48.884;9.160;2023-08-20T02:37:27;21.80;99.90
3466;DHT22;1747;48.884;9.160;2023-08-20T02:39:54;21.70;99.90
3466;DHT22;1747;48.884;9.160;2023-08-20T02:42:20;21.70;99.90
3466;DHT22;1747;48.884;9.160;2023-08-20T02:44:47;21.70;99.90
3466;DHT22;1747;48.884;9.160;2023-08-20T02:47:14;21.50;99.90
3466;DHT22;1747;48.884;9.160;2023-08-20T02:49:41;21.40;99.90
3466;DHT22;1747;48.884;9.160;2023-08-20T02:52:08;21.40;99.90
3466;DHT22;1747;48.884;9.160;2023-08-20T02:54:36;21.30;99.90
3466;DHT22;1747;48.884;9.160;2023-08-20T02:57:03;21.30;99.90
3466;DHT22;1747;48.884;9.160;2023-08-20T02:59:30;21.30;99.90
3466;DHT22;1747;48.884;9.160;2023-08-20T03:01:56;21.40;99.90
3466;DHT22;1747;48.884;9.160;2023-08-20T03:04:23;21.40;99.90
3466;DHT22;1747;48.884;9.160;2023-08-20T03:06:50;21.40;99.90
3466;DHT22;1747;48.884;9.160;2023-08-20T03:09:17;21.30;99.90
3466;DHT22;1747;48.884;9.160;2023-08-20T03:11:45;21.40;99.90
3466;DHT22;1747;48.884;9.160;2023-08-20T03:14:11;21.40;99.90
3466;DHT22;1747;48.884;9.160;2023-08-20T03:16:38;21.50;99.90
3466;DHT22;1747;48.884;9.160;2023-08-20T03:19:05;21.60;99.90
3466;DHT22;1747;48.884;9.160;2023-08-20T03:21:32;21.60;99.90
3466;DHT22;1747;48.884;9.160;2023-08-20T03:23:58;21.60;99.90
3466;DHT22;1747;48.884;9.160;2023-08-20T03:26:25;21.60;99.90
3466;DHT22;1747;48.884;9.160;2023-08-20T03:28:53;21.60;99.90
3466;DHT22;1747;48.884;9.160;2023-08-20T03:31:20;21.70;99.90
3466;DHT22;1747;48.884;9.160;2023-08-20T03:33:48;21.70;99.90
3466;DHT22;1747;48.884;9.160;2023-08-20T03:36:15;21.70;99.90
3466;DHT22;1747;48.884;9.160;2023-08-20T03:38:42;21.70;99.90
3466;DHT22;1747;48.884;9.160;2023-08-20T03:41:08;21.60;99.90
3466;DHT22;1747;48.884;9.160;2023-08-20T03:43:35;21.40;99.90
3466;DHT22;1747;48.884;9.160;2023-08-20T03:46:03;21.20;99.90
3466;DHT22;1747;48.884;9.160;2023-08-20T03:48:30;21.10;99.90
3466;DHT22;1747;48.884;9.160;2023-08-20T03:50:57;21.00;99.90
3466;DHT22;1747;48.884;9.160;2023-08-20T03:53:24;21.00;99.90
3466;DHT22;1747;48.884;9.160;2023-08-20T03:55:51;20.90;99.90
3466;DHT22;1747;48.884;9.160;2023-08-20T03:58:17;20.90;99.90
3466;DHT22;1747;48.884;9.160;2023-08-20T04:00:44;20.80;99.90
3466;DHT22;1747;48.884;9.160;2023-08-20T04:03:13;20.90;99.90
3466;DHT22;1747;48.884;9.160;2023-08-20T04:05:39;20.90;99.90
3466;DHT22;1747;48.884;9.160;2023-08-20T04:08:06;20.90;99.90
3466;DHT22;1747;48.884;9.160;2023-08-20T04:10:33;21.00;99.90
3466;DHT22;1747;48.884;9.160;2023-08-20T04:13:00;21.00;99.90
3466;DHT22;1747;48.884;9.160;2023-08-20T04:15:27;21.00;99.90
3466;DHT22;1747;48.884;9.160;2023-08-20T04:17:54;21.00;99.90
3466;DHT22;1747;48.884;9.160;2023-08-20T04:20:22;20.90;99.90
3466;DHT22;1747;48.884;9.160;2023-08-20T04:22:49;20.90;99.90
3466;DHT22;1747;48.884;9.160;2023-08-20T04:25:16;20.80;99.90
3466;DHT22;1747;48.884;9.160;2023-08-20T04:27:43;20.70;99.90
3466;DHT22;1747;48.884;9.160;2023-08-20T04:30:11;20.60;99.90
3466;DHT22;1747;48.884;9.160;2023-08-20T04:32:38;20.50;99.90
3466;DHT22;1747;48.884;9.160;2023-08-20T04:35:06;20.60;99.90
3466;DHT22;1747;48.884;9.160;2023-08-20T04:37:34;20.60;99.90
3466;DHT22;1747;48.884;9.160;2023-08-20T04:40:00;20.70;99.90
3466;DHT22;1747;48.884;9.160;2023-08-20T04:42:30;20.80;99.90
3466;DHT22;1747;48.884;9.160;2023-08-20T04:44:57;20.90;99.90
3466;DHT22;1747;48.884;9.160;2023-08-20T04:47:23;20.90;99.90
3466;DHT22;1747;48.884;9.160;2023-08-20T04:49:50;21.00;99.90
3466;DHT22;1747;48.884;9.160;2023-08-20T04:52:17;21.00;99.90
3466;DHT22;1747;48.884;9.160;2023-08-20T04:54:47;21.00;99.90
3466;DHT22;1747;48.884;9.160;2023-08-20T04:57:13;21.00;99.90
3466;DHT22;1747;48.884;9.160;2023-08-20T04:59:41;21.00;99.90
3466;DHT22;1747;48.884;9.160;2023-08-20T05:02:10;21.10;99.90
3466;DHT22;1747;48.884;9.160;2023-08-20T05:04:37;21.10;99.90
3466;DHT22;1747;48.884;9.160;2023-08-20T05:07:04;21.20;99.90
3466;DHT22;1747;48.884;9.160;2023-08-20T05:09:31;21.20;99.90
3466;DHT22;1747;48.884;9.160;2023-08-20T05:11:59;21.30;99.90
3466;DHT22;1747;48.884;9.160;2023-08-20T05:14:26;21.30;99.90
3466;DHT22;1747;48.884;9.160;2023-08-20T05:16:52;21.30;99.90
3466;DHT22;1747;48.884;9.160;2023-08-20T05:19:19;21.30;99.90
3466;DHT22;1747;48.884;9.160;2023-08-20T05:21:46;21.30;99.90
3466;DHT22;1747;48.884;9.160;2023-08-20T05:24:13;21.40;99.90
3466;DHT22;1747;48.884;9.160;2023-08-20T05:26:39;21.40;99.90
3466;DHT22;1747;48.884;9.160;2023-08-20T05:29:07;21.50;99.90
3466;DHT22;1747;48.884;9.160;2023-08-20T05:31:34;21.60;99.90
3466;DHT22;1747;48.884;9.160;2023-08-20T05:34:01;21.70;99.90
3466;DHT22;1747;48.884;9.160;2023-08-20T05:36:28;21.80;99.90
3466;DHT22;1747;48.884;9.160;2023-08-20T05:38:55;21.70;99.90
3466;DHT22;1747;48.884;9.160;2023-08-20T05:41:22;21.70;99.90
3466;DHT22;1747;48.884;9.160;2023-08-20T05:43:48;21.70;99.90
3466;DHT22;1747;48.884;9.160;2023-08-20T05:46:17;21.60;99.90
3466;DHT22;1747;48.884;9.160;2023-08-20T05:48:43;21.70;99.90
3466;DHT22;1747;48.884;9.160;2023-08-20T05:51:10;21.90;99.90
3466;DHT22;1747;48.884;9.160;2023-08-20T05:53:37;22.00;99.90
3466;DHT22;1747;48.884;9.160;2023-08-20T05:56:04;22.10;99.90
3466;DHT22;1747;48.884;9.160;2023-08-20T05:58:31;22.20;99.90
3466;DHT22;1747;48.884;9.160;2023-08-20T06:00:57;22.40;99.90
3466;DHT22;1747;48.884;9.160;2023-08-20T06:03:26;22.50;99.90
3466;DHT22;1747;48.884;9.160;2023-08-20T06:05:52;22.50;99.90
3466;DHT22;1747;48.884;9.160;2023-08-20T06:08:19;22.70;99.90
3466;DHT22;1747;48.884;9.160;2023-08-20T06:10:46;22.90;99.90
3466;DHT22;1747;48.884;9.160;2023-08-20T06:13:13;23.00;99.90
3466;DHT22;1747;48.884;9.160;2023-08-20T06:15:40;23.10;99.90
3466;DHT22;1747;48.884;9.160;2023-08-20T06:18:07;23.20;99.90
3466;DHT22;1747;48.884;9.160;2023-08-20T06:20:35;23.40;99.90
3466;DHT22;1747;48.884;9.160;2023-08-20T06:23:02;23.40;99.90
3466;DHT22;1747;48.884;9.160;2023-08-20T06:25:29;23.60;99.90
3466;DHT22;1747;48.884;9.160;2023-08-20T06:27:55;23.70;99.90
3466;DHT22;1747;48.884;9.160;2023-08-20T06:30:22;23.70;99.90
3466;DHT22;1747;48.884;9.160;2023-08-20T06:32:49;23.80;99.90
3466;DHT22;1747;48.884;9.160;2023-08-20T06:35:16;23.90;99.90
3466;DHT22;1747;48.884;9.160;2023-08-20T06:37:44;24.00;99.90
3466;DHT22;1747;48.884;9.160;2023-08-20T06:40:11;24.10;99.90
3466;DHT22;1747;48.884;9.160;2023-08-20T06:42:39;24.20;99.90
3466;DHT22;1747;48.884;9.160;2023-08-20T06:45:07;24.30;99.90
3466;DHT22;1747;48.884;9.160;2023-08-20T06:47:34;24.40;99.90
3466;DHT22;1747;48.884;9.160;2023-08-20T06:50:01;24.60;99.90
3466;DHT22;1747;48.884;9.160;2023-08-20T06:52:28;24.60;99.90
3466;DHT22;1747;48.884;9.160;2023-08-20T06:54:56;24.70;99.90
3466;DHT22;1747;48.884;9.160;2023-08-20T06:57:23;24.80;99.90
3466;DHT22;1747;48.884;9.160;2023-08-20T06:59:49;24.90;99.90
3466;DHT22;1747;48.884;9.160;2023-08-20T07:02:16;25.00;99.90
3466;DHT22;1747;48.884;9.160;2023-08-20T07:04:43;25.10;99.90
3466;DHT22;1747;48.884;9.160;2023-08-20T07:07:11;25.10;99.90
3466;DHT22;1747;48.884;9.160;2023-08-20T07:09:38;25.10;99.90
3466;DHT22;1747;48.884;9.160;2023-08-20T07:12:07;25.20;99.90
3466;DHT22;1747;48.884;9.160;2023-08-20T07:14:34;25.30;99.90
3466;DHT22;1747;48.884;9.160;2023-08-20T07:17:00;25.40;99.90
3466;DHT22;1747;48.884;9.160;2023-08-20T07:19:28;25.40;99.90
3466;DHT22;1747;48.884;9.160;2023-08-20T07:21:55;25.40;99.90
3466;DHT22;1747;48.884;9.160;2023-08-20T07:24:22;25.40;99.90
3466;DHT22;1747;48.884;9.160;2023-08-20T07:26:51;25.50;99.90
3466;DHT22;1747;48.884;9.160;2023-08-20T07:29:19;25.70;99.90
3466;DHT22;1747;48.884;9.160;2023-08-20T07:31:46;25.70;99.90
3466;DHT22;1747;48.884;9.160;2023-08-20T07:34:13;25.80;99.90
3466;DHT22;1747;48.884;9.160;2023-08-20T07:36:39;25.70;99.90
3466;DHT22;1747;48.884;9.160;2023-08-20T07:39:06;25.80;99.90
3466;DHT22;1747;48.884;9.160;2023-08-20T07:41:34;25.80;99.90
3466;DHT22;1747;48.884;9.160;2023-08-20T07:44:01;25.80;99.90
3466;DHT22;1747;48.884;9.160;2023-08-20T07:46:29;25.90;99.90
3466;DHT22;1747;48.884;9.160;2023-08-20T07:48:56;26.00;99.90
3466;DHT22;1747;48.884;9.160;2023-08-20T07:51:22;26.10;99.90
3466;DHT22;1747;48.884;9.160;2023-08-20T07:53:49;26.10;99.90
3466;DHT22;1747;48.884;9.160;2023-08-20T07:56:16;26.10;99.90
3466;DHT22;1747;48.884;9.160;2023-08-20T07:58:43;26.00;99.90
3466;DHT22;1747;48.884;9.160;2023-08-20T08:01:09;26.00;99.90
3466;DHT22;1747;48.884;9.160;2023-08-20T08:03:39;26.00;99.90
3466;DHT22;1747;48.884;9.160;2023-08-20T08:06:06;26.10;99.90
3466;DHT22;1747;48.884;9.160;2023-08-20T08:08:33;26.20;99.90
3466;DHT22;1747;48.884;9.160;2023-08-20T08:11:00;26.20;99.90
3466;DHT22;1747;48.884;9.160;2023-08-20T08:13:27;26.30;99.90
3466;DHT22;1747;48.884;9.160;2023-08-20T08:15:53;26.50;99.90
3466;DHT22;1747;48.884;9.160;2023-08-20T08:18:20;26.60;99.90
3466;DHT22;1747;48.884;9.160;2023-08-20T08:20:49;26.70;99.90
3466;DHT22;1747;48.884;9.160;2023-08-20T08:23:16;26.80;99.90
3466;DHT22;1747;48.884;9.160;2023-08-20T08:25:42;26.80;99.90
3466;DHT22;1747;48.884;9.160;2023-08-20T08:28:09;27.00;99.90
3466;DHT22;1747;48.884;9.160;2023-08-20T08:30:37;27.10;99.90
3466;DHT22;1747;48.884;9.160;2023-08-20T08:33:04;27.20;99.90
3466;DHT22;1747;48.884;9.160;2023-08-20T08:35:31;27.30;99.90
3466;DHT22;1747;48.884;9.160;2023-08-20T08:37:59;27.40;99.90
3466;DHT22;1747;48.884;9.160;2023-08-20T08:40:28;27.50;99.90
3466;DHT22;1747;48.884;9.160;2023-08-20T08:42:56;27.50;99.90
3466;DHT22;1747;48.884;9.160;2023-08-20T08:45:23;27.60;99.90
3466;DHT22;1747;48.884;9.160;2023-08-20T08:47:51;27.70;99.90
3466;DHT22;1747;48.884;9.160;2023-08-20T08:50:20;27.70;99.90
3466;DHT22;1747;48.884;9.160;2023-08-20T08:52:51;27.80;99.90
3466;DHT22;1747;48.884;9.160;2023-08-20T08:55:19;27.80;99.90
3466;DHT22;1747;48.884;9.160;2023-08-20T08:57:46;27.80;99.90
3466;DHT22;1747;48.884;9.160;2023-08-20T09:00:14;27.90;99.90
3466;DHT22;1747;48.884;9.160;2023-08-20T09:02:41;27.90;99.90
3466;DHT22;1747;48.884;9.160;2023-08-20T09:05:08;28.10;99.90
3466;DHT22;1747;48.884;9.160;2023-08-20T09:07:35;28.20;99.90
3466;DHT22;1747;48.884;9.160;2023-08-20T09:10:01;28.30;99.90
3466;DHT22;1747;48.884;9.160;2023-08-20T09:12:34;28.50;99.90
3466;DHT22;1747;48.884;9.160;2023-08-20T09:15:01;28.50;99.90
3466;DHT22;1747;48.884;9.160;2023-08-20T09:17:28;28.60;99.90
3466;DHT22;1747;48.884;9.160;2023-08-20T09:19:56;28.60;99.90
3466;DHT22;1747;48.884;9.160;2023-08-20T09:22:23;28.80;99.90
3466;DHT22;1747;48.884;9.160;2023-08-20T09:24:53;28.80;99.90
3466;DHT22;1747;48.884;9.160;2023-08-20T09:27:21;29.00;99.90
3466;DHT22;1747;48.884;9.160;2023-08-20T09:29:50;29.10;99.90
3466;DHT22;1747;48.884;9.160;2023-08-20T09:32:19;29.10;99.90
3466;DHT22;1747;48.884;9.160;2023-08-20T09:34:47;29.20;99.90
3466;DHT22;1747;48.884;9.160;2023-08-20T09:37:14;29.30;99.90
3466;DHT22;1747;48.884;9.160;2023-08-20T09:39:42;29.40;99.90
3466;DHT22;1747;48.884;9.160;2023-08-20T09:42:09;29.40;99.90
3466;DHT22;1747;48.884;9.160;2023-08-20T09:44:37;29.60;99.90
3466;DHT22;1747;48.884;9.160;2023-08-20T09:47:08;29.70;99.90
3466;DHT22;1747;48.884;9.160;2023-08-20T09:49:41;29.80;99.90
3466;DHT22;1747;48.884;9.160;2023-08-20T09:52:09;29.80;99.90
3466;DHT22;1747;48.884;9.160;2023-08-20T09:54:51;29.90;99.90
3466;DHT22;1747;48.884;9.160;2023-08-20T09:57:26;29.90;99.90
3466;DHT22;1747;48.884;9.160;2023-08-20T09:59:54;30.00;99.90
3466;DHT22;1747;48.884;9.160;2023-08-20T10:02:24;30.00;99.90
3466;DHT22;1747;48.884;9.160;2023-08-20T10:04:52;30.00;99.90
3466;DHT22;1747;48.884;9.160;2023-08-20T10:07:19;30.20;99.90
3466;DHT22;1747;48.884;9.160;2023-08-20T10:09:48;30.20;99.90
3466;DHT22;1747;48.884;9.160;2023-08-20T10:12:16;30.30;99.90
3466;DHT22;1747;48.884;9.160;2023-08-20T10:14:43;30.40;99.90
3466;DHT22;1747;48.884;9.160;2023-08-20T10:17:11;30.50;99.90
3466;DHT22;1747;48.884;9.160;2023-08-20T10:19:42;30.60;99.90
3466;DHT22;1747;48.884;9.160;2023-08-20T10:22:09;30.80;99.90
3466;DHT22;1747;48.884;9.160;2023-08-20T10:24:41;30.90;99.90
3466;DHT22;1747;48.884;9.160;2023-08-20T10:27:10;31.10;99.90
3466;DHT22;1747;48.884;9.160;2023-08-20T10:29:38;31.00;99.90
3466;DHT22;1747;48.884;9.160;2023-08-20T10:32:06;31.00;99.90
3466;DHT22;1747;48.884;9.160;2023-08-20T10:34:35;31.00;99.90
3466;DHT22;1747;48.884;9.160;2023-08-20T10:37:09;31.00;99.90
3466;DHT22;1747;48.884;9.160;2023-08-20T10:39:35;31.10;99.90
3466;DHT22;1747;48.884;9.160;2023-08-20T10:42:17;31.10;99.90
3466;DHT22;1747;48.884;9.160;2023-08-20T10:44:58;31.10;99.90
3466;DHT22;1747;48.884;9.160;2023-08-20T10:47:26;31.10;99.90
3466;DHT22;1747;48.884;9.160;2023-08-20T10:49:53;31.20;99.90
3466;DHT22;1747;48.884;9.160;2023-08-20T10:52:22;31.30;99.90
3466;DHT22;1747;48.884;9.160;2023-08-20T10:54:50;31.30;99.90
3466;DHT22;1747;48.884;9.160;2023-08-20T10:57:18;31.40;99.90
3466;DHT22;1747;48.884;9.160;2023-08-20T10:59:56;31.40;99.90
3466;DHT22;1747;48.884;9.160;2023-08-20T11:02:23;31.40;99.90
3466;DHT22;1747;48.884;9.160;2023-08-20T11:04:52;31.50;99.90
3466;DHT22;1747;48.884;9.160;2023-08-20T11:07:21;31.60;99.90
3466;DHT22;1747;48.884;9.160;2023-08-20T11:09:50;31.60;99.90
3466;DHT22;1747;48.884;9.160;2023-08-20T11:12:20;31.60;99.90
3466;DHT22;1747;48.884;9.160;2023-08-20T11:14:47;31.70;99.90
3466;DHT22;1747;48.884;9.160;2023-08-20T11:17:14;31.70;99.90
3466;DHT22;1747;48.884;9.160;2023-08-20T11:19:40;31.70;99.90
3466;DHT22;1747;48.884;9.160;2023-08-20T11:22:08;31.70;99.90
3466;DHT22;1747;48.884;9.160;2023-08-20T11:24:37;31.80;99.90
3466;DHT22;1747;48.884;9.160;2023-08-20T11:27:04;31.90;99.90
3466;DHT22;1747;48.884;9.160;2023-08-20T11:29:31;32.10;99.90
3466;DHT22;1747;48.884;9.160;2023-08-20T11:31:58;32.20;99.90
3466;DHT22;1747;48.884;9.160;2023-08-20T11:34:28;32.30;99.90
3466;DHT22;1747;48.884;9.160;2023-08-20T11:36:55;32.40;99.90
3466;DHT22;1747;48.884;9.160;2023-08-20T11:39:23;32.30;99.90
3466;DHT22;1747;48.884;9.160;2023-08-20T11:41:52;32.40;99.90
3466;DHT22;1747;48.884;9.160;2023-08-20T11:44:20;32.30;99.90
3466;DHT22;1747;48.884;9.160;2023-08-20T11:46:48;32.40;99.90
3466;DHT22;1747;48.884;9.160;2023-08-20T11:49:16;32.50;99.90
3466;DHT22;1747;48.884;9.160;2023-08-20T11:51:44;32.50;99.90
3466;DHT22;1747;48.884;9.160;2023-08-20T11:54:13;32.70;99.90
3466;DHT22;1747;48.884;9.160;2023-08-20T11:56:43;32.80;99.90
3466;DHT22;1747;48.884;9.160;2023-08-20T11:59:12;33.00;99.90
3466;DHT22;1747;48.884;9.160;2023-08-20T12:01:40;33.30;99.50
3466;DHT22;1747;48.884;9.160;2023-08-20T12:04:08;33.70;99.90
3466;DHT22;1747;48.884;9.160;2023-08-20T12:06:36;34.00;99.30
3466;DHT22;1747;48.884;9.160;2023-08-20T12:09:20;34.50;98.50
3466;DHT22;1747;48.884;9.160;2023-08-20T12:11:49;35.00;98.10
3466;DHT22;1747;48.884;9.160;2023-08-20T12:14:18;35.20;98.10
3466;DHT22;1747;48.884;9.160;2023-08-20T12:16:45;35.60;96.70
3466;DHT22;1747;48.884;9.160;2023-08-20T12:19:12;36.00;96.20
3466;DHT22;1747;48.884;9.160;2023-08-20T12:21:39;36.60;95.20
3466;DHT22;1747;48.884;9.160;2023-08-20T12:24:08;36.90;95.40
3466;DHT22;1747;48.884;9.160;2023-08-20T12:26:35;37.50;94.70
3466;DHT22;1747;48.884;9.160;2023-08-20T12:29:02;38.00;93.60
3466;DHT22;1747;48.884;9.160;2023-08-20T12:31:30;38.20;92.90
3466;DHT22;1747;48.884;9.160;2023-08-20T12:33:57;38.40;91.90
3466;DHT22;1747;48.884;9.160;2023-08-20T12:36:24;38.60;91.40
3466;DHT22;1747;48.884;9.160;2023-08-20T12:38:50;38.80;90.40
3466;DHT22;1747;48.884;9.160;2023-08-20T12:41:18;39.00;91.30
3466;DHT22;1747;48.884;9.160;2023-08-20T12:43:45;39.30;86.40
3466;DHT22;1747;48.884;9.160;2023-08-20T12:46:12;39.40;86.40
3466;DHT22;1747;48.884;9.160;2023-08-20T12:48:40;39.40;88.20
3466;DHT22;1747;48.884;9.160;2023-08-20T12:51:07;39.50;86.70
3466;DHT22;1747;48.884;9.160;2023-08-20T12:53:38;39.70;85.30
3466;DHT22;1747;48.884;9.160;2023-08-20T12:56:04;39.90;85.10
3466;DHT22;1747;48.884;9.160;2023-08-20T12:58:31;40.20;84.20
3466;DHT22;1747;48.884;9.160;2023-08-20T13:00:58;40.50;85.00
3466;DHT22;1747;48.884;9.160;2023-08-20T13:03:25;40.80;82.70
3466;DHT22;1747;48.884;9.160;2023-08-20T13:05:55;40.90;83.60
3466;DHT22;1747;48.884;9.160;2023-08-20T13:08:22;41.00;81.70
3466;DHT22;1747;48.884;9.160;2023-08-20T13:10:53;41.20;81.00
3466;DHT22;1747;48.884;9.160;2023-08-20T13:13:21;41.30;80.80
3466;DHT22;1747;48.884;9.160;2023-08-20T13:15:50;41.70;80.20
3466;DHT22;1747;48.884;9.160;2023-08-20T13:18:18;41.70;78.20
3466;DHT22;1747;48.884;9.160;2023-08-20T13:20:45;41.40;79.10
3466;DHT22;1747;48.884;9.160;2023-08-20T13:23:13;41.10;77.90
3466;DHT22;1747;48.884;9.160;2023-08-20T13:25:40;41.20;77.60
3466;DHT22;1747;48.884;9.160;2023-08-20T13:28:08;41.50;77.60
3466;DHT22;1747;48.884;9.160;2023-08-20T13:30:35;41.90;76.30
3466;DHT22;1747;48.884;9.160;2023-08-20T13:33:02;42.20;74.60
3466;DHT22;1747;48.884;9.160;2023-08-20T13:35:30;42.30;74.70
3466;DHT22;1747;48.884;9.160;2023-08-20T13:37:56;42.60;73.00
3466;DHT22;1747;48.884;9.160;2023-08-20T13:40:25;42.30;72.70
3466;DHT22;1747;48.884;9.160;2023-08-20T13:42:51;42.00;73.20
3466;DHT22;1747;48.884;9.160;2023-08-20T13:45:18;42.20;73.20
3466;DHT22;1747;48.884;9.160;2023-08-20T13:47:45;42.20;71.80
3466;DHT22;1747;48.884;9.160;2023-08-20T13:50:12;42.00;73.30
3466;DHT22;1747;48.884;9.160;2023-08-20T13:52:39;42.00;72.90
3466;DHT22;1747;48.884;9.160;2023-08-20T13:55:06;42.00;72.40
3466;DHT22;1747;48.884;9.160;2023-08-20T13:57:34;42.10;72.30
3466;DHT22;1747;48.884;9.160;2023-08-20T14:00:01;42.30;72.30
3466;DHT22;1747;48.884;9.160;2023-08-20T14:02:33;42.50;72.50
3466;DHT22;1747;48.884;9.160;2023-08-20T14:05:00;42.90;69.80
3466;DHT22;1747;48.884;9.160;2023-08-20T14:07:26;43.00;69.30
3466;DHT22;1747;48.884;9.160;2023-08-20T14:09:54;43.40;70.10
3466;DHT22;1747;48.884;9.160;2023-08-20T14:12:20;43.60;68.20
3466;DHT22;1747;48.884;9.160;2023-08-20T14:14:49;43.80;67.60
3466;DHT22;1747;48.884;9.160;2023-08-20T14:17:16;44.20;67.30
3466;DHT22;1747;48.884;9.160;2023-08-20T14:19:42;44.40;65.50
3466;DHT22;1747;48.884;9.160;2023-08-20T14:22:09;44.20;65.90
3466;DHT22;1747;48.884;9.160;2023-08-20T14:24:36;44.20;65.40
3466;DHT22;1747;48.884;9.160;2023-08-20T14:27:03;44.20;64.80
3466;DHT22;1747;48.884;9.160;2023-08-20T14:29:32;43.90;64.90
3466;DHT22;1747;48.884;9.160;2023-08-20T14:32:01;44.20;64.30
3466;DHT22;1747;48.884;9.160;2023-08-20T14:34:28;44.20;65.20
3466;DHT22;1747;48.884;9.160;2023-08-20T14:36:55;44.40;62.90
3466;DHT22;1747;48.884;9.160;2023-08-20T14:39:22;44.20;63.90
3466;DHT22;1747;48.884;9.160;2023-08-20T14:41:49;44.50;63.00
3466;DHT22;1747;48.884;9.160;2023-08-20T14:44:15;44.50;62.50
3466;DHT22;1747;48.884;9.160;2023-08-20T14:46:42;44.70;62.20
3466;DHT22;1747;48.884;9.160;2023-08-20T14:49:10;45.10;61.40
3466;DHT22;1747;48.884;9.160;2023-08-20T14:51:37;45.50;60.70
3466;DHT22;1747;48.884;9.160;2023-08-20T14:54:04;45.60;60.50
3466;DHT22;1747;48.884;9.160;2023-08-20T14:56:31;45.40;59.80
3466;DHT22;1747;48.884;9.160;2023-08-20T14:58:58;45.40;60.00
3466;DHT22;1747;48.884;9.160;2023-08-20T15:01:25;45.50;60.00
3466;DHT22;1747;48.884;9.160;2023-08-20T15:03:51;45.50;61.30
3466;DHT22;1747;48.884;9.160;2023-08-20T15:06:20;45.50;60.00
3466;DHT22;1747;48.884;9.160;2023-08-20T15:08:49;45.40;59.30
3466;DHT22;1747;48.884;9.160;2023-08-20T15:11:16;45.10;59.50
3466;DHT22;1747;48.884;9.160;2023-08-20T15:13:43;44.40;60.00
3466;DHT22;1747;48.884;9.160;2023-08-20T15:16:09;43.40;61.10
3466;DHT22;1747;48.884;9.160;2023-08-20T15:18:36;42.90;61.80
3466;DHT22;1747;48.884;9.160;2023-08-20T15:21:03;42.40;62.20
3466;DHT22;1747;48.884;9.160;2023-08-20T15:23:31;42.00;62.40
3466;DHT22;1747;48.884;9.160;2023-08-20T15:25:59;42.00;63.30
3466;DHT22;1747;48.884;9.160;2023-08-20T15:28:26;42.10;63.00
3466;DHT22;1747;48.884;9.160;2023-08-20T15:30:55;42.50;63.50
3466;DHT22;1747;48.884;9.160;2023-08-20T15:33:23;42.40;62.10
3466;DHT22;1747;48.884;9.160;2023-08-20T15:35:50;42.00;62.70
3466;DHT22;1747;48.884;9.160;2023-08-20T15:38:17;41.70;62.40
3466;DHT22;1747;48.884;9.160;2023-08-20T15:40:45;41.50;62.50
3466;DHT22;1747;48.884;9.160;2023-08-20T15:43:12;42.00;62.50
3466;DHT22;1747;48.884;9.160;2023-08-20T15:45:39;42.20;62.00
3466;DHT22;1747;48.884;9.160;2023-08-20T15:48:06;42.10;63.20
3466;DHT22;1747;48.884;9.160;2023-08-20T15:50:33;42.20;63.60
3466;DHT22;1747;48.884;9.160;2023-08-20T15:53:00;42.00;63.70
3466;DHT22;1747;48.884;9.160;2023-08-20T15:55:28;42.00;63.90
3466;DHT22;1747;48.884;9.160;2023-08-20T15:57:56;41.60;63.30
3466;DHT22;1747;48.884;9.160;2023-08-20T16:00:23;41.60;63.90
3466;DHT22;1747;48.884;9.160;2023-08-20T16:02:50;41.30;64.40
3466;DHT22;1747;48.884;9.160;2023-08-20T16:05:18;40.90;65.30
3466;DHT22;1747;48.884;9.160;2023-08-20T16:07:45;40.60;64.30